Flight Track Log - Related Links

Times and Time Zones

All times are in EDT time to prevent confusion due to time zone crossing. See the N6711G flight status page for this flight to view local times or setup timezone preferences in your user account.

Time Position Orientation Groundspeed Altitude Reporting Facility
EDT Latitude Longitude Course Direction KTS MPH feet Rate Location/Type
Fri 10:27:00 AM 32.3421 -80.9513 300° West  Level FlightAware Approximate
Fri 10:28:00 AM 32.3637 -80.9955 300° West  Level FlightAware Approximate
Fri 10:29:00 AM 32.3853 -81.0398 300° West  Level FlightAware Approximate
Fri 10:30:00 AM 32.4068 -81.0842 300° West  Level FlightAware Approximate
Fri 10:31:00 AM 32.4284 -81.1285 300° West  Level FlightAware Approximate
Fri 10:32:00 AM 32.4500 -81.1729 300° West  Level FlightAware Approximate
Fri 10:33:00 AM 32.4715 -81.2172 300° West  Level FlightAware Approximate
Fri 10:34:00 AM 32.4930 -81.2616 300° West  Level FlightAware Approximate
Fri 10:35:00 AM 32.5145 -81.3061 300° West  Level FlightAware Approximate
Fri 10:36:00 AM 32.5360 -81.3505 300° West  Level FlightAware Approximate
Fri 10:37:00 AM 32.5574 -81.3950 300° West  Level FlightAware Approximate
Fri 10:37:02 AM 32.3486 -81.3064 297° West 151 174 5,900  Level Jacksonville Center
Fri 10:38:00 AM 32.5789 -81.4395 300° West  Level FlightAware Approximate
Fri 10:38:02 AM 32.3803 -81.3403 318° Northwest 151 174 5,900  Level Jacksonville Center
Fri 10:39:00 AM 32.6003 -81.4840 297° West  Level FlightAware Approximate
Fri 10:39:02 AM 32.4142 -81.3742 320° Northwest 151 174 5,900  Level Jacksonville Center
Fri 10:40:00 AM 32.6202 -81.5295 297° West  Level FlightAware Approximate
Fri 10:40:02 AM 32.4436 -81.3983 325° Northwest 157 181 5,900  Level Jacksonville Center
Fri 10:41:00 AM 32.6400 -81.5750 297° West  Level FlightAware Approximate
Fri 10:41:02 AM 32.4817 -81.4322 323° Northwest 152 175 5,900  Level Jacksonville Center
Fri 10:42:00 AM 32.6599 -81.6206 297° West  Level FlightAware Approximate
Fri 10:42:02 AM 32.5133 -81.4661 318° Northwest 163 188 5,900  Level Jacksonville Center
Fri 10:43:02 AM 32.5431 -81.5053 312° West 158 182 5,900  Level Jacksonville Center
Fri 10:44:02 AM 32.5664 -81.5392 309° West 153 176 5,900  Level Jacksonville Center
Fri 10:45:02 AM 32.5919 -81.5858 303° West 153 176 5,900  Level Jacksonville Center
Fri 10:46:02 AM 32.6092 -81.6275 296° West 153 176 5,900  Level Jacksonville Center
Fri 10:48:31 AM 32.6622 -81.7417 299° West 159 183 5,900  Level Atlanta Center
Fri 10:49:31 AM 32.6861 -81.7831 304° West 159 183 5,900  Level Atlanta Center
Fri 10:50:31 AM 32.7078 -81.8269 300° West 159 183 5,900  Level Atlanta Center
Fri 10:51:31 AM 32.7336 -81.8683 307° West 159 183 5,900 50 Level Atlanta Center
Fri 10:52:31 AM 32.7511 -81.9147 294° West 159 183 6,000 50 Climbing Atlanta Center
Fri 10:53:31 AM 32.7725 -81.9564 301° West 153 176 6,000  Level Atlanta Center
Fri 10:54:31 AM 32.7922 -82.0003 298° West 153 176 6,000  Level Atlanta Center
Fri 10:55:31 AM 32.8158 -82.0417 304° West 153 176 6,000  Level Atlanta Center
Fri 10:56:31 AM 32.8372 -82.0858 300° West 153 176 6,000 50 Level Atlanta Center
Fri 10:57:31 AM 32.8569 -82.1322 297° West 153 176 6,100  Climbing Atlanta Center
Fri 10:58:31 AM 32.8742 -82.1789 294° West 153 176 6,000 -50 Descending Atlanta Center
Fri 10:59:31 AM 32.8917 -82.2231 295° West 159 183 6,000  Level Atlanta Center
Fri 11:00:31 AM 32.9150 -82.2597 307° West 153 176 6,000 50 Level Atlanta Center
Fri 11:01:31 AM 32.9408 -82.3014 306° West 153 176 6,100 50 Climbing Atlanta Center
Fri 11:02:31 AM 32.9622 -82.3428 302° West 153 176 6,100 -13 Level Atlanta Center
Fri 11:04:00 AM 32.9919 -82.4057 299° West  Level FlightAware Approximate
Fri 11:09:10 AM 33.1000 -82.6500 299° West 158 182 6,000  Level Atlanta TRACON
Fri 11:10:10 AM 33.1333 -82.6833 320° Northwest 156 180 6,000  Level Atlanta TRACON
Fri 11:11:00 AM 33.1315 -82.7030 299° West  Level FlightAware Approximate
Fri 11:11:10 AM 33.1500 -82.7333 292° West 157 181 6,000  Level Atlanta TRACON
Fri 11:12:00 AM 33.1513 -82.7456 299° West  Level FlightAware Approximate
Fri 11:12:04 AM 33.1667 -82.7833 292° West 158 182 6,000  Level Atlanta TRACON
Fri 11:13:00 AM 33.1712 -82.7882 299° West  Level FlightAware Approximate
Fri 11:13:04 AM 33.1833 -82.8167 301° West 154 177 6,000  Level Atlanta TRACON
Fri 11:14:00 AM 33.1911 -82.8308 299° West  Level FlightAware Approximate
Fri 11:14:04 AM 33.2000 -82.8667 292° West 156 180 5,900  Level Atlanta TRACON
Fri 11:15:04 AM 33.2333 -82.9167 309° West 158 182 6,000 50 Climbing Atlanta TRACON
Fri 11:16:04 AM 33.2500 -82.9500 301° West 155 178 6,000  Level Atlanta TRACON
Fri 11:17:04 AM 33.2667 -83.0000 292° West 155 178 6,000  Level Atlanta TRACON
Fri 11:17:59 AM 33.2833 -83.0500 292° West 153 176 6,000  Level Atlanta TRACON
Fri 11:18:53 AM 33.2833 -83.0833 270° West 154 177 6,000  Level Atlanta TRACON
Fri 11:19:53 AM 33.3000 -83.1500 287° West 161 185 6,000  Level Atlanta TRACON
Fri 11:20:53 AM 33.3000 -83.2000 270° West 157 181 6,000  Level Atlanta TRACON
Fri 11:21:53 AM 33.3000 -83.2333 270° West 152 175 6,000  Level Atlanta TRACON
Fri 11:22:53 AM 33.3167 -83.2833 292° West 153 176 6,000  Level Atlanta TRACON
Fri 11:23:53 AM 33.3333 -83.3333 292° West 154 177 6,000  Level Atlanta TRACON
Fri 11:24:53 AM 33.3333 -83.3833 270° West 158 182 6,000  Level Atlanta TRACON
Fri 11:25:53 AM 33.3500 -83.4333 292° West 155 178 6,000  Level Atlanta TRACON
Fri 11:26:53 AM 33.3500 -83.5000 270° West 158 182 6,000  Level Atlanta TRACON
Fri 11:27:53 AM 33.3667 -83.5500 292° West 156 180 6,000  Level Atlanta TRACON
Fri 11:28:53 AM 33.3833 -83.6000 292° West 159 183 6,000  Level Atlanta TRACON
Fri 11:29:54 AM 33.3833 -83.6500 270° West 158 182 6,000  Level Atlanta TRACON
Fri 11:30:48 AM 33.4000 -83.6833 301° West 158 182 6,000 -211 Level Atlanta TRACON
Fri 11:31:48 AM 33.4333 -83.7333 309° West 159 183 5,600 -350 Descending Atlanta TRACON
Fri 11:32:48 AM 33.4667 -83.7500 337° Northwest 160 184 5,300 -450 Descending Atlanta TRACON
Fri 11:33:48 AM 33.5000 -83.7833 320° Northwest 159 183 4,700 -550 Descending Atlanta TRACON
Fri 11:34:48 AM 33.5333 -83.8167 320° Northwest 158 182 4,200 -400 Descending Atlanta TRACON
Fri 11:35:48 AM 33.5667 -83.8333 337° Northwest 160 184 3,900 200 Descending Atlanta TRACON
Fri 11:36:48 AM 33.6167 -83.8667 331° Northwest 157 181 4,600  Climbing Atlanta TRACON
Fri 11:37:48 AM 33.6500 -83.8833 337° Northwest 154 177 3,900 -350 Descending Atlanta TRACON
Fri 11:38:48 AM 33.6833 -83.9167 320° Northwest 155 178 3,900  Level Atlanta TRACON
Fri 11:39:54 AM 33.7333 -83.9333 345° North 153 176 3,900 50 Level Atlanta TRACON
Fri 11:40:48 AM 33.7667 -83.9667 320° Northwest 152 175 4,000 53 Climbing Atlanta TRACON
Fri 11:41:48 AM 33.8000 -83.9833 337° Northwest 157 181 4,000 -50 Level Atlanta TRACON
Fri 11:42:48 AM 33.8333 -84.0000 337° Northwest 155 178 3,900  Descending Atlanta TRACON
Fri 11:43:48 AM 33.8833 -84.0333 331° Northwest 156 180 4,000  Climbing Atlanta TRACON
Fri 11:44:48 AM 33.9167 -84.0667 320° Northwest 150 173 3,900 -50 Descending Atlanta TRACON
Fri 11:45:48 AM 33.9333 -84.1000 301° West 148 170 3,900 -446 Level Atlanta TRACON
Fri 11:46:49 AM 33.9667 -84.1333 320° Northwest 148 170 3,000 -400 Descending Atlanta TRACON
Fri 11:47:48 AM 34.0000 -84.1667 320° Northwest 142 163 3,100 50 Climbing Atlanta TRACON
Fri 11:48:48 AM 34.0167 -84.2000 301° West 138 159 3,100 -100 Level Atlanta TRACON
Fri 11:49:48 AM 34.0000 -84.2333 239° Southwest 146 168 2,900 -150 Descending Atlanta TRACON
Fri 11:50:48 AM 33.9667 -84.2500 203° Southwest 135 155 2,800 -400 Descending Atlanta TRACON
Fri 11:51:48 AM 33.9333 -84.2667 203° Southwest 135 155 2,100 -650 Descending Atlanta TRACON
Fri 11:52:48 AM 33.9000 -84.2833 203° Southwest 118 136 1,500 -600 Descending Atlanta TRACON
Fri 11:54:00 AM 33.8667 -84.3000 203° Southwest  Level FlightAware Approximate
Fri 12:01:00 PM 33.8756 -84.3020 203° Southwest  Level Estimated
Fri 12:02:00 PM 33.8756 -84.3020 203° Southwest  Level Estimated
Fri 12:03:00 PM 33.8756 -84.3020 203° Southwest  Level Estimated

Login

Don't have an account? Register now (free) for customized features, flight alerts, and more!